Terminal Aerodrome Forecast
Issued by NWS

Home | Current Version | Previous Version | Text Only | Print | Product List | Glossary On
Versions: 1 2 3 4 5 6 7 8 9 10 11 12
000
FTUS45 KBOI 180529
TAFMYL
TAF
KMYL 180529Z 1806/1906 VRB04KT 6SM -SHRA SCT020 BKN025 OVC040
      TEMPO 1806/1810 4SM -SHRA SCT007 OVC015
     FM181400 33006KT P6SM BKN035
     FM181800 22008KT P6SM SCT150=

USA.gov is the U.S. government's official web portal to all federal, state and local government web resources and services.